Time;durP1;ratioP1;P1;durP2;ratioP2;P2;SDS_P1;SDS_P2;PMS_P1;PMS_P2;Temp;Humidity;BMP_temperature;BMP_pressure;BME280_temperature;BME280_humidity;BME280_pressure;Samples;Min_cycle;Max_cycle;Signal;HPM_P1;HPM_P2
2024/01/31 00:00:58;;;;;;;50.95;26.27;;;;;;;2.05;59.26;101801.16;7765286;32;37771;-81
2024/01/31 00:05:15;;;;;;;49.15;25.40;;;;;;;1.09;63.44;101799.69;7765237;32;40121;-80
2024/01/31 00:09:32;;;;;;;44.60;26.45;;;;;;;1.62;61.79;101795.03;7751327;32;40726;-81
2024/01/31 00:13:48;;;;;;;47.78;26.25;;;;;;;1.65;61.53;101802.78;7765191;32;38260;-80
2024/01/31 00:18:05;;;;;;;41.60;23.87;;;;;;;1.67;61.16;101809.69;7764780;32;36948;-81
2024/01/31 00:22:21;;;;;;;45.28;23.98;;;;;;;1.75;60.67;101810.72;7764087;32;39757;-81
2024/01/31 00:26:38;;;;;;;60.30;24.30;;;;;;;1.71;60.21;101809.34;7764867;32;39889;-80
2024/01/31 00:30:54;;;;;;;50.55;25.35;;;;;;;1.99;59.38;101810.75;7764956;32;37769;-80
2024/01/31 00:35:11;;;;;;;43.42;23.40;;;;;;;1.83;59.64;101805.34;7764861;32;37793;-81
2024/01/31 00:39:32;;;;;;;47.62;22.48;;;;;;;1.93;58.74;101806.00;7764832;32;40610;-81
2024/01/31 00:43:50;;;;;;;41.08;23.58;;;;;;;1.84;58.24;101809.72;7764746;32;38961;-80
2024/01/31 00:48:07;;;;;;;41.05;23.30;;;;;;;1.93;57.47;101807.88;7764514;32;37631;-80
2024/01/31 00:52:23;;;;;;;50.22;23.73;;;;;;;1.54;57.70;101805.78;7764572;32;37275;-80
2024/01/31 00:56:40;;;;;;;47.28;24.08;;;;;;;1.73;57.12;101791.22;7764417;32;40085;-80
2024/01/31 01:00:56;;;;;;;53.87;25.70;;;;;;;1.71;57.04;101790.50;7764417;32;39733;-80
2024/01/31 01:05:13;;;;;;;45.85;25.45;;;;;;;1.83;56.71;101795.44;7764171;32;38082;-80
2024/01/31 01:09:30;;;;;;;46.37;25.23;;;;;;;1.72;57.74;101794.91;7764241;32;37503;-80
2024/01/31 01:13:48;;;;;;;49.33;25.85;;;;;;;1.79;58.02;101791.38;7764179;32;39340;-80
2024/01/31 01:18:05;;;;;;;47.88;24.98;;;;;;;1.70;58.05;101795.06;8020856;26;40709;-80
2024/01/31 01:22:21;;;;;;;51.70;24.30;;;;;;;1.98;56.86;101789.37;7762499;32;37447;-80
2024/01/31 01:26:41;;;;;;;47.33;24.12;;;;;;;2.00;56.27;101787.38;7762739;32;37777;-80
2024/01/31 01:30:57;;;;;;;46.40;23.52;;;;;;;1.56;57.51;101774.19;7763837;32;39832;-80
2024/01/31 01:35:13;;;;;;;48.28;25.08;;;;;;;1.77;57.04;101771.88;7765680;32;39936;-81
2024/01/31 01:39:30;;;;;;;45.47;22.87;;;;;;;1.62;57.57;101769.00;7790413;32;38640;-81
2024/01/31 01:43:48;;;;;;;41.95;22.65;;;;;;;1.74;57.65;101766.81;7780192;32;37240;-81
2024/01/31 01:48:04;;;;;;;42.45;24.17;;;;;;;1.66;57.52;101766.81;7780210;32;39442;-80
2024/01/31 01:52:21;;;;;;;45.58;24.20;;;;;;;1.72;57.01;101766.16;7793964;32;39926;-80
2024/01/31 01:56:37;;;;;;;44.22;23.67;;;;;;;1.72;57.14;101763.47;7786755;32;37956;-80
2024/01/31 02:00:54;;;;;;;41.17;23.62;;;;;;;1.69;57.17;101750.34;7766841;32;37048;-80
2024/01/31 02:05:10;;;;;;;49.97;25.58;;;;;;;1.82;56.57;101747.19;7752945;32;40194;-81
2024/01/31 02:09:27;;;;;;;49.40;24.55;;;;;;;1.62;57.05;101752.88;7768179;32;40942;-80
2024/01/31 02:13:43;;;;;;;48.65;25.27;;;;;;;1.61;57.25;101747.66;7779808;32;37214;-80
2024/01/31 02:17:59;;;;;;;50.20;26.17;;;;;;;1.65;57.24;101746.31;7793497;32;37881;-80
2024/01/31 02:22:19;;;;;;;53.72;27.95;;;;;;;1.41;58.03;101742.53;7789286;32;40106;-80
2024/01/31 02:26:36;;;;;;;55.53;28.35;;;;;;;1.26;58.77;101738.78;7766867;32;38134;-80
2024/01/31 02:30:52;;;;;;;57.35;27.05;;;;;;;1.16;59.27;101730.06;7766275;32;37963;-80
2024/01/31 02:35:08;;;;;;;54.25;25.92;;;;;;;1.12;59.49;101726.81;7767174;32;38715;-80
2024/01/31 02:39:25;;;;;;;60.67;25.85;;;;;;;1.05;59.35;101718.59;7766271;32;39256;-80
2024/01/31 02:43:42;;;;;;;64.18;27.83;;;;;;;0.94;59.30;101727.75;7765870;32;39665;-81
2024/01/31 02:47:58;;;;;;;49.00;24.95;;;;;;;1.03;59.81;101727.81;7766126;32;38097;-81
2024/01/31 02:52:14;;;;;;;50.05;24.55;;;;;;;1.14;59.70;101722.16;7766217;32;38073;-80
2024/01/31 02:56:30;;;;;;;318.60;34.78;;;;;;;1.20;59.67;101720.66;7766069;32;39342;-80
2024/01/31 03:00:47;;;;;;;366.75;35.13;;;;;;;1.17;60.05;101721.81;7766088;32;39960;-81
2024/01/31 03:05:03;;;;;;;49.15;23.50;;;;;;;1.25;60.07;101724.53;7777978;32;37609;-81
2024/01/31 03:09:21;;;;;;;43.22;21.70;;;;;;;1.01;61.23;101727.97;7793171;32;37248;-81
2024/01/31 03:13:37;;;;;;;41.28;22.92;;;;;;;1.08;61.09;101720.94;7793060;32;39843;-81
2024/01/31 03:17:54;;;;;;;45.50;24.15;;;;;;;1.10;60.12;101716.28;7792890;32;41002;-80
2024/01/31 03:22:10;;;;;;;46.15;23.30;;;;;;;0.87;59.93;101712.47;7787432;32;37914;-80
2024/01/31 03:26:27;;;;;;;97.95;26.85;;;;;;;0.81;59.58;101715.78;7765827;32;37253;-80
2024/01/31 03:30:43;;;;;;;57.05;25.00;;;;;;;0.53;60.60;101713.28;7765752;32;39860;-81
2024/01/31 03:34:59;;;;;;;43.80;22.50;;;;;;;0.77;59.66;101726.00;7765778;32;40590;-80
2024/01/31 03:39:16;;;;;;;36.78;20.77;;;;;;;0.52;59.79;101725.88;7765637;32;38667;-81
2024/01/31 03:43:33;;;;;;;48.40;23.77;;;;;;;0.55;59.68;101722.00;7765652;32;37231;-80
2024/01/31 03:47:49;;;;;;;46.42;22.55;;;;;;;0.63;59.96;101722.06;7765533;32;39988;-80
2024/01/31 03:52:06;;;;;;;202.20;26.73;;;;;;;0.87;59.62;101723.22;7765425;32;39891;-81
2024/01/31 03:56:22;;;;;;;45.60;23.38;;;;;;;0.94;60.06;101726.94;7765291;32;38195;-80
2024/01/31 04:00:38;;;;;;;51.80;24.75;;;;;;;0.81;60.91;101726.53;7792539;32;37396;-80
2024/01/31 04:04:55;;;;;;;48.42;24.55;;;;;;;0.96;60.78;101724.09;7792539;32;40126;-80
2024/01/31 04:09:11;;;;;;;52.72;24.15;;;;;;;0.72;61.65;101733.69;7792403;32;39785;-81
2024/01/31 04:13:28;;;;;;;49.22;24.15;;;;;;;0.95;61.13;101734.00;7792389;32;37912;-81
2024/01/31 04:17:44;;;;;;;49.00;24.17;;;;;;;0.97;61.26;101729.31;7792146;32;37216;-81
2024/01/31 04:22:02;;;;;;;48.47;25.42;;;;;;;1.14;61.05;101727.53;7786124;32;39276;-80
2024/01/31 04:26:18;;;;;;;49.63;24.85;;;;;;;1.09;61.66;101725.31;7765005;32;41006;-80
2024/01/31 04:30:34;;;;;;;59.78;25.75;;;;;;;1.30;61.17;101724.06;7764928;32;38027;-80
2024/01/31 04:34:51;;;;;;;65.15;25.85;;;;;;;1.03;62.15;101728.63;7763727;32;37161;-80
2024/01/31 04:39:07;;;;;;;87.12;25.33;;;;;;;1.46;61.02;101725.94;7764738;32;39200;-81
2024/01/31 04:43:24;;;;;;;90.05;26.90;;;;;;;1.28;61.59;101724.22;7764928;32;39763;-81
2024/01/31 04:47:43;;;;;;;188.00;29.58;;;;;;;1.08;62.15;101723.62;7764757;32;38045;-81
2024/01/31 04:51:59;;;;;;;104.87;26.30;;;;;;;0.93;62.60;101730.59;7775191;32;37103;-81
2024/01/31 04:56:18;;;;;;;134.60;26.05;;;;;;;1.18;61.89;101722.66;7791772;32;39271;-81
2024/01/31 05:00:34;;;;;;;108.68;26.35;;;;;;;1.05;62.38;101712.38;7791685;32;38930;-81
2024/01/31 05:04:50;;;;;;;60.03;24.85;;;;;;;0.99;62.91;101721.91;7791535;32;37932;-81
2024/01/31 05:09:08;;;;;;;80.32;24.95;;;;;;;1.16;62.69;101724.69;7791214;32;37228;-81
2024/01/31 05:13:25;;;;;;;111.72;26.95;;;;;;;1.36;61.84;101720.69;7791498;32;39422;-81
2024/01/31 05:17:41;;;;;;;70.00;25.05;;;;;;;1.24;61.78;101727.38;7791048;32;39916;-80
2024/01/31 05:21:58;;;;;;;68.87;22.67;;;;;;;1.05;62.06;101713.22;7791067;32;37838;-80
2024/01/31 05:26:15;;;;;;;69.68;26.05;;;;;;;0.88;62.54;101706.06;7791121;32;37396;-81
2024/01/31 05:30:31;;;;;;;54.05;25.00;;;;;;;1.02;62.26;101702.81;7791085;32;38848;-81
2024/01/31 05:34:48;;;;;;;53.40;23.65;;;;;;;1.08;62.33;101696.75;7790949;32;39720;-81
2024/01/31 05:39:04;;;;;;;73.68;24.17;;;;;;;1.17;62.34;101704.84;7790705;32;38653;-81
2024/01/31 05:43:21;;;;;;;79.85;25.25;;;;;;;1.30;61.94;101705.25;7790277;32;37181;-80
2024/01/31 05:47:37;;;;;;;58.55;22.40;;;;;;;0.80;63.28;101706.91;7762216;32;40591;-81
2024/01/31 05:51:53;;;;;;;51.10;23.62;;;;;;;0.86;63.29;101702.72;7763334;32;39838;-80
2024/01/31 05:56:09;;;;;;;56.67;24.15;;;;;;;1.00;62.56;101707.50;7763170;32;37940;-81
2024/01/31 06:00:26;;;;;;;54.30;24.23;;;;;;;0.96;62.38;101703.44;7763104;32;37146;-80
2024/01/31 06:04:42;;;;;;;50.60;23.50;;;;;;;1.04;61.98;101703.47;7773043;32;39289;-81
2024/01/31 06:08:58;;;;;;;52.90;25.30;;;;;;;0.94;62.36;101710.81;7790013;32;40010;-80
2024/01/31 06:13:14;;;;;;;81.75;25.10;;;;;;;0.81;62.79;101702.34;7789862;32;38030;-80
2024/01/31 06:17:30;;;;;;;46.63;23.38;;;;;;;0.67;62.91;101707.34;7775430;32;37166;-81
2024/01/31 06:21:47;;;;;;;59.90;24.12;;;;;;;0.74;62.84;101712.88;7792556;32;40073;-80
2024/01/31 06:26:03;;;;;;;44.45;20.55;;;;;;;0.83;62.58;101708.41;7772550;32;39982;-80
2024/01/31 06:30:21;;;;;;;92.15;23.58;;;;;;;1.01;62.12;101708.31;7766405;32;38633;-80
2024/01/31 06:34:37;;;;;;;67.18;23.87;;;;;;;1.15;61.60;101706.88;7766453;32;37025;-80
2024/01/31 06:38:53;;;;;;;69.12;24.63;;;;;;;1.18;61.23;101696.62;7773866;32;39252;-81
2024/01/31 06:43:10;;;;;;;63.75;22.37;;;;;;;0.93;61.90;101699.25;7793417;32;39891;-81
2024/01/31 06:47:26;;;;;;;235.93;26.60;;;;;;;0.09;65.77;101705.28;7793208;32;38775;-82
2024/01/31 06:51:42;;;;;;;61.30;23.65;;;;;;;0.25;65.25;101712.59;7793305;32;38315;-80
2024/01/31 06:56:00;;;;;;;51.70;22.37;;;;;;;0.81;63.28;101711.28;7793252;32;40134;-82
2024/01/31 07:00:16;;;;;;;67.12;21.85;;;;;;;0.73;63.75;101704.00;7793054;32;39982;-81
2024/01/31 07:04:32;;;;;;;47.65;20.10;;;;;;;1.03;63.31;101712.53;7781856;32;38631;-81
2024/01/31 07:08:49;;;;;;;79.20;22.92;;;;;;;1.29;62.52;101717.84;7765963;32;37868;-80
2024/01/31 07:13:05;;;;;;;101.95;23.58;;;;;;;1.43;62.34;101718.19;7765959;32;39890;-80
2024/01/31 07:17:22;;;;;;;77.47;22.87;;;;;;;1.20;62.29;101715.28;7764298;32;39702;-81
2024/01/31 07:21:39;;;;;;;83.20;24.10;;;;;;;1.18;62.07;101726.19;7765695;32;37709;-82
2024/01/31 07:25:55;;;;;;;64.03;23.62;;;;;;;1.45;61.54;101735.00;7787005;32;38247;-81
2024/01/31 07:30:11;;;;;;;118.07;24.90;;;;;;;1.21;62.03;101739.31;7792754;32;39924;-81
2024/01/31 07:34:27;;;;;;;310.70;29.40;;;;;;;1.57;60.78;101733.69;7791189;32;39908;-82
2024/01/31 07:38:45;;;;;;;135.70;26.55;;;;;;;1.45;61.24;101740.38;7792501;32;37976;-81
2024/01/31 07:43:01;;;;;;;187.10;28.15;;;;;;;1.24;61.75;101738.97;7792512;32;37219;-81
2024/01/31 07:47:18;;;;;;;64.20;23.83;;;;;;;1.06;62.25;101735.53;7792496;32;40092;-82
2024/01/31 07:51:41;;;;;;;48.60;21.12;;;;;;;1.27;61.71;101735.94;7792571;32;40075;-82
2024/01/31 07:55:58;;;;;;;57.83;21.08;;;;;;;1.20;61.35;101731.41;7792632;32;38664;-82
2024/01/31 08:00:19;;;;;;;72.18;21.33;;;;;;;1.12;61.02;101730.38;7792502;32;37943;-80
2024/01/31 08:04:35;;;;;;;60.90;22.15;;;;;;;1.20;61.22;101728.72;7779472;32;40027;-82
2024/01/31 08:08:52;;;;;;;108.68;22.83;;;;;;;1.18;62.97;101722.66;7769063;32;39678;-84
2024/01/31 08:13:09;;;;;;;49.65;22.90;;;;;;;0.89;62.52;101718.50;7778627;32;38776;-83
2024/01/31 08:17:25;;;;;;;168.87;26.50;;;;;;;1.28;61.96;101715.31;7791869;32;38071;-82
2024/01/31 08:21:43;;;;;;;108.93;25.92;;;;;;;1.05;62.89;101721.28;7770342;32;264924;-83
2024/01/31 08:25:59;;;;;;;49.35;22.48;;;;;;;1.16;62.76;101724.69;7775381;32;40548;-84
2024/01/31 08:30:17;;;;;;;50.40;22.05;;;;;;;1.16;62.54;101727.38;7764873;32;37938;-82
2024/01/31 08:34:33;;;;;;;53.92;22.98;;;;;;;1.54;62.88;101727.81;7775312;32;37875;-82
2024/01/31 08:38:50;;;;;;;61.40;24.83;;;;;;;1.64;62.45;101717.75;7791249;32;40122;-81
2024/01/31 08:43:07;;;;;;;70.70;23.77;;;;;;;1.73;62.02;101708.69;7791029;32;40747;-80
2024/01/31 08:47:23;;;;;;;104.03;25.95;;;;;;;1.46;63.16;101713.31;7791696;32;38561;-80
2024/01/31 08:51:39;;;;;;;105.40;24.40;;;;;;;1.76;62.31;101713.72;7791659;32;37381;-81
2024/01/31 08:55:56;;;;;;;85.75;24.65;;;;;;;1.50;63.12;101709.31;7791610;32;40053;-81
2024/01/31 09:00:23;;;;;;;69.20;24.15;;;;;;;1.36;63.67;101699.19;7791572;32;40916;-80
2024/01/31 09:04:40;;;;;;;105.28;27.33;;;;;;;1.34;63.84;101706.59;7776291;32;37953;-80
2024/01/31 09:08:56;;;;;;;124.78;26.98;;;;;;;1.55;63.25;101710.66;7764275;32;38052;-81
2024/01/31 09:13:13;;;;;;;75.10;27.30;;;;;;;1.47;63.58;101715.03;7764247;32;39998;-81
2024/01/31 09:17:29;;;;;;;57.03;27.35;;;;;;;1.16;65.01;101716.62;7769325;32;40679;-80
2024/01/31 09:21:45;;;;;;;72.28;28.17;;;;;;;1.89;63.36;101715.91;7791135;32;37950;-80
2024/01/31 09:26:03;;;;;;;62.00;24.63;;;;;;;1.62;63.84;101711.66;7775634;32;37961;-81
2024/01/31 09:30:19;;;;;;;57.25;23.58;;;;;;;2.04;63.09;101708.03;7790693;32;40178;-79
2024/01/31 09:34:35;;;;;;;56.53;24.45;;;;;;;1.96;63.68;101698.09;7784058;32;39778;-79
2024/01/31 09:38:51;;;;;;;58.42;25.77;;;;;;;2.21;63.39;101693.53;7778922;32;38647;-80
2024/01/31 09:43:08;;;;;;;46.55;24.45;;;;;;;1.64;64.84;101696.25;7788354;32;38245;-80
2024/01/31 09:47:27;;;;;;;45.53;22.85;;;;;;;2.08;63.36;101687.00;7763492;32;40057;-80
2024/01/31 09:51:44;;;;;;;53.20;24.08;;;;;;;2.26;63.84;101679.59;7763405;32;40804;-81
2024/01/31 09:56:00;;;;;;;46.70;23.42;;;;;;;2.50;62.51;101670.63;7766178;32;38879;-81
2024/01/31 10:00:17;;;;;;;50.85;24.52;;;;;;;2.08;63.45;101677.06;7766736;32;37989;-81
2024/01/31 10:04:34;;;;;;;52.13;24.17;;;;;;;1.87;64.43;101666.81;7766905;32;39489;-81
2024/01/31 10:08:50;;;;;;;48.90;23.83;;;;;;;2.36;63.40;101665.91;7766649;32;39989;-80
2024/01/31 10:13:08;;;;;;;52.67;25.33;;;;;;;2.41;62.87;101663.56;7766474;32;38706;-80
2024/01/31 10:17:24;;;;;;;47.97;23.12;;;;;;;2.68;62.43;101662.31;7775866;32;37998;-79
2024/01/31 10:21:40;;;;;;;45.88;22.95;;;;;;;3.03;61.87;101648.50;7790670;32;39698;-79
2024/01/31 10:25:56;;;;;;;49.10;23.85;;;;;;;3.74;60.49;101641.97;7787474;32;40126;-80
2024/01/31 10:30:14;;;;;;;42.90;21.70;;;;;;;3.94;58.82;101638.75;7757332;32;38115;-80
2024/01/31 10:34:32;;;;;;;41.53;21.75;;;;;;;3.62;59.29;101627.22;7761554;32;38275;-82
2024/01/31 10:39:11;;;;;;;42.90;21.48;;;;;;;3.70;58.58;101619.06;7766107;32;38952;-81
2024/01/31 10:43:29;;;;;;;41.42;21.92;;;;;;;2.91;60.79;101619.25;7752968;32;40811;-82
2024/01/31 10:47:45;;;;;;;45.80;21.55;;;;;;;3.23;60.29;101612.00;7752271;32;38034;-81
2024/01/31 10:52:04;;;;;;;45.55;21.42;;;;;;;4.12;58.90;101606.87;7766016;32;38066;-82
2024/01/31 10:56:21;;;;;;;40.17;21.27;;;;;;;4.54;57.55;101601.03;7765056;32;38522;-80
2024/01/31 11:00:45;;;;;;;42.95;21.62;;;;;;;4.70;57.33;101598.09;7766739;32;39802;-80
2024/01/31 11:05:04;;;;;;;44.55;21.85;;;;;;;5.18;55.52;101595.75;7764406;32;37789;-82
2024/01/31 11:09:24;;;;;;;42.47;22.60;;;;;;;5.05;55.37;101599.16;7781759;32;37591;-83
2024/01/31 11:13:40;;;;;;;46.13;22.95;;;;;;;5.10;55.82;101589.63;7778436;32;39356;-82
2024/01/31 11:18:10;;;;;;;42.53;22.75;;;;;;;5.45;54.88;101579.78;7783106;32;39911;-74
2024/01/31 11:22:31;;;;;;;38.97;21.92;;;;;;;5.89;56.83;101580.56;7778085;32;37001;-81
2024/01/31 11:26:47;;;;;;;47.60;22.37;;;;;;;5.67;54.43;101583.28;7776244;32;37180;-81
2024/01/31 11:31:04;;;;;;;41.03;21.75;;;;;;;5.29;54.72;101577.34;7778614;32;39298;-82
2024/01/31 11:35:24;;;;;;;37.03;20.70;;;;;;;5.51;54.55;101579.00;7785577;32;39959;-81
2024/01/31 11:39:41;;;;;;;36.78;20.77;;;;;;;6.20;53.47;101563.91;7774271;32;38677;-79
2024/01/31 11:43:57;;;;;;;30.88;17.15;;;;;;;6.44;52.33;101556.34;7769415;32;37287;-83
2024/01/31 11:48:16;;;;;;;35.58;18.45;;;;;;;6.14;51.78;101551.16;7750518;32;39274;-84
2024/01/31 11:52:32;;;;;;;33.60;18.20;;;;;;;6.30;49.95;101534.59;7766389;32;39603;-80
2024/01/31 11:56:49;;;;;;;35.75;17.23;;;;;;;6.04;49.86;101542.56;7783450;32;37955;-80
2024/01/31 12:01:06;;;;;;;31.83;17.85;;;;;;;6.66;49.27;101521.84;7781924;32;37243;-81
2024/01/31 12:05:22;;;;;;;33.58;17.37;;;;;;;7.11;47.55;101520.25;7752117;32;39889;-81
2024/01/31 12:09:39;;;;;;;30.98;17.62;;;;;;;7.15;47.52;101518.78;7765378;32;39763;-80
2024/01/31 12:13:55;;;;;;;34.50;18.17;;;;;;;6.46;48.17;101516.34;7765173;32;38868;-81
2024/01/31 12:18:12;;;;;;;27.17;15.23;;;;;;;6.07;49.00;101512.38;7763956;32;36937;-81
2024/01/31 12:22:28;;;;;;;26.10;15.05;;;;;;;5.97;49.13;101513.59;7764063;32;39353;-81
2024/01/31 12:26:45;;;;;;;32.92;16.58;;;;;;;6.70;47.55;101507.66;7762882;32;39971;-81
2024/01/31 12:31:01;;;;;;;31.55;15.07;;;;;;;6.51;47.84;101498.44;7763667;32;38020;-82
2024/01/31 12:35:18;;;;;;;30.12;16.52;;;;;;;6.83;47.17;101495.16;7764266;32;37226;-81
2024/01/31 12:39:35;;;;;;;29.63;16.30;;;;;;;6.70;47.18;101493.28;7764826;32;40242;-81
2024/01/31 12:43:52;;;;;;;28.73;15.43;;;;;;;6.58;47.63;101487.63;7764813;32;39989;-81
2024/01/31 12:48:09;;;;;;;28.98;16.73;;;;;;;5.91;49.74;101497.28;7764666;32;38700;-81
2024/01/31 12:52:25;;;;;;;29.63;16.00;;;;;;;5.90;50.46;101501.87;7751223;32;37328;-81
2024/01/31 12:56:42;;;;;;;28.42;15.77;;;;;;;5.93;50.27;101496.06;7764668;32;39436;-81
2024/01/31 13:00:58;;;;;;;26.08;14.68;;;;;;;6.22;49.33;101472.47;7764494;32;39953;-81
2024/01/31 13:05:15;;;;;;;34.58;15.30;;;;;;;6.23;48.50;101460.59;7764396;32;38067;-81
2024/01/31 13:09:31;;;;;;;26.25;15.23;;;;;;;6.61;48.09;101459.28;7764406;32;37853;-81
2024/01/31 13:13:50;;;;;;;27.75;15.20;;;;;;;6.56;47.46;101460.72;7764192;32;40074;-81
2024/01/31 13:18:06;;;;;;;26.90;15.80;;;;;;;7.40;46.17;101453.09;7763646;32;38928;-82
2024/01/31 13:22:24;;;;;;;27.83;15.70;;;;;;;7.39;45.85;101456.84;7764048;32;37047;-81
2024/01/31 13:26:41;;;;;;;30.70;16.92;;;;;;;7.44;45.80;101448.91;7764045;32;37168;-81
2024/01/31 13:30:57;;;;;;;27.58;15.30;;;;;;;7.15;47.07;101461.84;7770933;32;39383;-81
2024/01/31 13:35:13;;;;;;;26.95;15.73;;;;;;;7.64;46.28;101448.03;7772848;32;39721;-82
2024/01/31 13:39:29;;;;;;;30.48;15.63;;;;;;;7.55;46.11;101444.69;7772568;32;38545;-82
2024/01/31 13:43:46;;;;;;;32.47;18.40;;;;;;;6.53;47.19;101452.16;7772601;32;37369;-82
2024/01/31 13:48:02;;;;;;;33.97;19.77;;;;;;;6.52;47.58;101456.75;7772616;32;39357;-81
2024/01/31 13:52:19;;;;;;;36.88;19.27;;;;;;;6.72;47.89;101451.38;7772328;32;39890;-82
2024/01/31 13:56:35;;;;;;;39.47;20.65;;;;;;;6.73;48.18;101450.34;7772158;32;37749;-81
2024/01/31 14:00:51;;;;;;;35.63;20.27;;;;;;;6.50;48.84;101439.00;7772147;32;38034;-82
2024/01/31 14:05:08;;;;;;;40.28;19.92;;;;;;;7.13;47.64;101436.81;7772150;32;40053;-82
2024/01/31 14:09:25;;;;;;;35.13;18.70;;;;;;;6.79;48.30;101445.12;7771881;32;40018;-82
2024/01/31 14:13:41;;;;;;;31.45;18.20;;;;;;;6.85;47.51;101444.31;7771699;32;37763;-81
2024/01/31 14:17:58;;;;;;;31.98;18.42;;;;;;;7.66;45.84;101433.22;7771646;32;37930;-82
2024/01/31 14:22:14;;;;;;;34.67;17.58;;;;;;;8.20;44.29;101435.75;7771648;32;39647;-81
2024/01/31 14:26:41;;;;;;;36.05;19.23;;;;;;;8.81;43.29;101437.09;7771763;32;39735;-82
2024/01/31 14:30:57;;;;;;;34.13;18.77;;;;;;;10.38;39.43;101421.50;7771435;32;37647;-82
2024/01/31 14:35:14;;;;;;;44.95;20.05;;;;;;;8.85;42.17;101430.19;7771277;32;37933;-82
2024/01/31 14:39:30;;;;;;;32.05;18.08;;;;;;;8.82;42.21;101433.34;7770413;32;39374;-82
2024/01/31 14:43:47;;;;;;;37.22;19.95;;;;;;;8.28;43.31;101421.94;7766051;32;40756;-82
2024/01/31 14:48:03;;;;;;;39.10;20.08;;;;;;;8.37;43.07;101427.94;7766201;32;38843;-82
2024/01/31 14:52:23;;;;;;;38.65;19.83;;;;;;;8.36;43.29;101412.69;7766242;32;37916;-81
2024/01/31 14:56:52;;;;;;;36.72;18.62;;;;;;;7.87;44.08;101426.66;7766257;32;40563;-81
2024/01/31 15:01:09;;;;;;;31.83;18.37;;;;;;;7.78;44.70;101422.53;7766042;32;40751;-81
2024/01/31 15:05:25;;;;;;;34.65;18.25;;;;;;;7.67;44.85;101418.56;7766033;32;37948;-81
2024/01/31 15:09:42;;;;;;;35.30;18.83;;;;;;;6.89;46.45;101424.69;7766086;32;37316;-81
2024/01/31 15:13:58;;;;;;;34.40;18.92;;;;;;;6.90;46.13;101426.37;7765944;32;40136;-81
2024/01/31 15:18:14;;;;;;;31.55;18.23;;;;;;;7.14;45.98;101427.63;7765744;32;39922;-81
2024/01/31 15:22:33;;;;;;;35.92;19.35;;;;;;;6.96;47.37;101424.72;7765666;32;37728;-81
2024/01/31 15:26:49;;;;;;;35.72;19.42;;;;;;;6.89;47.05;101427.41;7765876;32;37524;-81
2024/01/31 15:31:05;;;;;;;34.58;18.17;;;;;;;7.18;46.07;101424.50;7765836;32;39093;-81
2024/01/31 15:35:22;;;;;;;36.22;19.25;;;;;;;6.82;47.68;101431.16;7765672;32;40773;-81
2024/01/31 15:39:38;;;;;;;42.20;19.73;;;;;;;6.76;47.95;101427.38;7765723;32;38772;-81
2024/01/31 15:43:54;;;;;;;37.40;19.67;;;;;;;6.82;47.07;101434.72;7765599;32;37188;-81
2024/01/31 15:48:11;;;;;;;36.17;18.73;;;;;;;6.78;47.91;101433.47;7765577;32;39330;-81
2024/01/31 15:52:27;;;;;;;32.35;18.73;;;;;;;6.61;47.97;101427.59;7764260;32;39869;-81
2024/01/31 15:56:43;;;;;;;38.80;19.92;;;;;;;6.53;48.28;101430.47;7765419;32;37744;-81
2024/01/31 16:01:00;;;;;;;34.08;19.02;;;;;;;6.32;48.60;101424.16;7765337;32;38032;-81
2024/01/31 16:05:16;;;;;;;40.08;22.60;;;;;;;6.14;49.31;101426.59;7765290;32;39401;-81
2024/01/31 16:09:32;;;;;;;44.05;23.48;;;;;;;5.97;50.66;101426.13;7765286;32;40803;-81
2024/01/31 16:13:49;;;;;;;51.25;25.92;;;;;;;5.97;51.33;101424.25;7765254;32;38707;-81
2024/01/31 16:18:08;;;;;;;45.90;23.90;;;;;;;6.09;51.76;101420.94;7765224;32;38073;-81
2024/01/31 16:22:24;;;;;;;45.90;24.12;;;;;;;5.97;52.11;101416.13;7765240;32;40149;-81
2024/01/31 16:26:43;;;;;;;40.50;23.15;;;;;;;5.94;52.18;101416.50;7765200;32;39429;-81
2024/01/31 16:31:01;;;;;;;46.50;24.17;;;;;;;5.92;52.05;101426.69;7751306;32;37785;-81
2024/01/31 16:35:18;;;;;;;47.13;24.58;;;;;;;5.99;51.68;101421.34;7765120;32;36051;-81
2024/01/31 16:39:34;;;;;;;44.65;24.65;;;;;;;5.79;51.69;101434.75;7764960;32;39318;-81
2024/01/31 16:43:54;;;;;;;50.75;24.98;;;;;;;5.55;52.28;101433.34;7764844;32;40743;-81
2024/01/31 16:48:10;;;;;;;47.10;25.15;;;;;;;5.63;51.82;101431.31;7764665;32;37986;-81
2024/01/31 16:52:27;;;;;;;49.45;24.33;;;;;;;5.87;51.07;101429.16;7764715;32;38204;-81
2024/01/31 16:56:43;;;;;;;45.22;25.45;;;;;;;5.86;50.78;101430.19;7764693;32;39417;-81
2024/01/31 17:00:59;;;;;;;44.60;25.90;;;;;;;5.83;50.81;101434.16;7764504;32;40556;-81
2024/01/31 17:05:16;;;;;;;48.60;26.33;;;;;;;5.94;50.38;101423.78;7763914;32;37727;-81
2024/01/31 17:09:34;;;;;;;49.30;27.27;;;;;;;5.75;51.82;101430.78;7764501;32;36391;-81
2024/01/31 17:13:50;;;;;;;48.38;27.08;;;;;;;5.51;51.91;101413.16;7764359;32;40069;-81
2024/01/31 17:18:09;;;;;;;47.72;25.10;;;;;;;5.58;51.60;101416.72;7764039;32;39843;-81
2024/01/31 17:22:26;;;;;;;41.92;22.73;;;;;;;5.44;51.42;101408.53;7764150;32;38273;-81
2024/01/31 17:26:42;;;;;;;42.55;24.40;;;;;;;5.62;51.34;101410.72;7764080;32;37114;-81
2024/01/31 17:30:58;;;;;;;41.35;23.40;;;;;;;5.54;51.61;101421.69;7763862;32;39295;-81
2024/01/31 17:35:14;;;;;;;43.28;24.52;;;;;;;5.51;51.63;101411.28;7763844;32;40720;-81
2024/01/31 17:39:31;;;;;;;50.83;25.83;;;;;;;5.67;51.38;101415.53;7763638;32;38668;-81
2024/01/31 17:43:47;;;;;;;56.37;23.48;;;;;;;5.81;51.27;101411.88;7763593;32;37066;-81
2024/01/31 17:48:04;;;;;;;45.92;24.08;;;;;;;5.54;52.27;101419.00;7763528;32;39090;-81
2024/01/31 17:52:20;;;;;;;46.90;23.87;;;;;;;5.59;52.02;101411.12;7763461;32;39896;-81
2024/01/31 17:56:43;;;;;;;36.70;22.48;;;;;;;5.54;52.36;101404.62;7763244;32;38673;-81
2024/01/31 18:00:59;;;;;;;36.35;21.45;;;;;;;5.25;53.83;101406.53;7763221;32;36953;-81
2024/01/31 18:05:16;;;;;;;37.15;20.40;;;;;;;5.48;53.85;101394.59;7763146;32;39312;-81
2024/01/31 18:09:33;;;;;;;32.78;17.98;;;;;;;5.55;53.57;101387.34;7762970;32;40796;-81
2024/01/31 18:13:52;;;;;;;33.40;16.70;;;;;;;5.53;53.49;101394.84;7762771;32;37907;-81
2024/01/31 18:18:08;;;;;;;34.15;18.20;;;;;;;5.15;54.38;101385.22;7765877;32;38070;-80
2024/01/31 18:22:24;;;;;;;35.25;18.08;;;;;;;5.40;53.51;101387.50;7766533;32;40320;-81
2024/01/31 18:26:41;;;;;;;34.90;19.23;;;;;;;5.45;52.62;101388.56;7766527;32;39893;-81
2024/01/31 18:30:57;;;;;;;35.05;18.65;;;;;;;5.40;52.35;101388.31;7766423;32;38532;-81
2024/01/31 18:35:14;;;;;;;36.83;19.52;;;;;;;5.41;52.38;101397.25;7766405;32;37225;-82
2024/01/31 18:39:30;;;;;;;38.58;21.58;;;;;;;5.34;52.35;101378.28;7766361;32;39247;-81
2024/01/31 18:43:47;;;;;;;38.60;22.65;;;;;;;5.09;53.12;101377.91;7766293;32;39885;-81
2024/01/31 18:48:03;;;;;;;44.80;23.70;;;;;;;4.87;53.74;101361.72;7766145;32;38132;-81
2024/01/31 18:52:20;;;;;;;41.15;22.13;;;;;;;4.95;53.61;101354.50;7766384;32;37262;-81
2024/01/31 18:56:38;;;;;;;46.37;24.45;;;;;;;5.10;53.32;101360.66;7766083;32;40056;-82
2024/01/31 19:00:59;;;;;;;43.35;23.33;;;;;;;5.08;53.21;101363.53;7765942;32;40998;-81
2024/01/31 19:05:17;;;;;;;39.47;21.02;;;;;;;5.00;53.30;101369.13;7752101;32;38874;-81
2024/01/31 19:09:33;;;;;;;36.35;20.33;;;;;;;4.80;53.15;101366.25;7766073;32;36254;-81
2024/01/31 19:13:55;;;;;;;37.78;19.83;;;;;;;4.79;52.80;101374.53;7765966;32;39307;-81
2024/01/31 19:18:12;;;;;;;37.90;20.17;;;;;;;5.00;52.10;101370.97;7765736;32;40651;-81
2024/01/31 19:22:29;;;;;;;37.20;20.37;;;;;;;4.73;52.79;101370.75;7765657;32;38094;-81
2024/01/31 19:26:46;;;;;;;35.75;19.83;;;;;;;4.77;52.64;101361.22;7765560;32;37280;-81
2024/01/31 19:31:02;;;;;;;36.55;20.95;;;;;;;4.91;52.44;101359.47;7765752;32;40252;-81
2024/01/31 19:35:18;;;;;;;37.40;21.87;;;;;;;4.73;52.71;101370.75;7765987;32;39376;-81
2024/01/31 19:39:34;;;;;;;44.58;22.35;;;;;;;4.57;53.25;101379.97;7765472;32;38787;-81